Time,TemperatureF,DewpointF,PressureIn,WindDirection,WindDirectionDegrees,WindSpeedMPH,WindSpeedGustMPH,Humidity,HourlyPrecipIn,Conditions,Clouds,dailyrainin,SoftwareType,DateUTC
2013-01-17 00:02:00,15.0,14.0,-100.00,ESE,123,8.0,10.0,97,0.00,,,-99.99,,2013-01-17 07:02:00,
2013-01-17 00:12:00,13.0,12.0,-100.00,SE,127,7.0,8.0,97,0.00,,,-99.99,,2013-01-17 07:12:00,
2013-01-17 00:22:00,13.0,12.0,-100.00,SE,127,7.0,8.0,97,0.00,,,-99.99,,2013-01-17 07:22:00,
2013-01-17 00:42:00,14.0,13.0,-100.00,SE,124,8.0,9.0,97,0.00,,,-99.99,,2013-01-17 07:42:00,
2013-01-17 00:52:00,14.0,13.0,-100.00,SE,128,7.0,8.0,96,0.00,,,-99.99,,2013-01-17 07:52:00,
2013-01-17 01:02:00,14.0,13.0,-100.00,SE,128,7.0,8.0,96,0.00,,,-99.99,,2013-01-17 08:02:00,
2013-01-17 01:11:00,13.0,12.0,-100.00,SE,130,7.0,9.0,96,0.00,,,-99.99,,2013-01-17 08:11:00,
2013-01-17 01:22:00,13.0,12.0,-100.00,SE,130,7.0,9.0,96,0.00,,,-99.99,,2013-01-17 08:22:00,
2013-01-17 01:32:00,13.0,12.0,-100.00,SE,130,7.0,9.0,96,0.00,,,-99.99,,2013-01-17 08:32:00,
2013-01-17 01:43:00,14.0,13.0,-100.00,ESE,123,9.0,11.0,97,0.00,,,-99.99,,2013-01-17 08:43:00,
2013-01-17 01:53:00,13.0,12.0,-100.00,SE,131,7.0,8.0,96,0.00,,,-99.99,,2013-01-17 08:53:00,
2013-01-17 02:02:00,13.0,12.0,-100.00,SE,131,7.0,8.0,96,0.00,,,-99.99,,2013-01-17 09:02:00,
2013-01-17 02:12:00,13.0,12.0,-100.00,SE,137,7.0,9.0,97,0.00,,,-99.99,,2013-01-17 09:12:00,
2013-01-17 02:22:00,13.0,12.0,-100.00,SE,137,7.0,9.0,97,0.00,,,-99.99,,2013-01-17 09:22:00,
2013-01-17 02:32:00,12.0,12.0,-100.00,SE,136,7.0,8.0,96,0.00,,,-99.99,,2013-01-17 09:32:00,
2013-01-17 02:42:00,12.0,11.0,-100.00,ESE,123,7.0,9.0,97,0.00,,,-99.99,,2013-01-17 09:42:00,
2013-01-17 02:52:00,12.0,11.0,-100.00,ESE,123,7.0,9.0,97,0.00,,,-99.99,,2013-01-17 09:52:00,
2013-01-17 03:02:00,12.0,11.0,-100.00,ESE,123,7.0,9.0,97,0.00,,,-99.99,,2013-01-17 10:02:00,
2013-01-17 03:11:00,13.0,12.0,-100.00,SE,126,7.0,8.0,96,0.00,,,-99.99,,2013-01-17 10:11:00,
2013-01-17 03:22:00,13.0,12.0,-100.00,SE,126,7.0,8.0,96,0.00,,,-99.99,,2013-01-17 10:22:00,
2013-01-17 03:32:00,13.0,12.0,-100.00,SE,126,7.0,8.0,96,0.00,,,-99.99,,2013-01-17 10:32:00,
2013-01-17 03:42:00,12.0,11.0,-100.00,SE,140,7.0,9.0,96,0.00,,,-99.99,,2013-01-17 10:42:00,
2013-01-17 03:53:00,12.0,11.0,-100.00,SE,140,7.0,9.0,96,0.00,,,-99.99,,2013-01-17 10:53:00,
2013-01-17 04:02:00,12.0,11.0,-100.00,SE,140,7.0,9.0,96,0.00,,,-99.99,,2013-01-17 11:02:00,
2013-01-17 04:11:00,12.0,11.0,-100.00,SE,127,8.0,9.0,97,0.00,,,-99.99,,2013-01-17 11:11:00,
2013-01-17 04:22:00,12.0,12.0,-100.00,ESE,123,8.0,9.0,97,0.00,,,-99.99,,2013-01-17 11:22:00,
2013-01-17 04:32:00,12.0,12.0,-100.00,ESE,123,8.0,9.0,97,0.00,,,-99.99,,2013-01-17 11:32:00,
2013-01-17 04:42:00,13.0,11.0,-100.00,SE,137,6.0,8.0,96,0.00,,,-99.99,,2013-01-17 11:42:00,
2013-01-17 04:53:00,12.0,11.0,-100.00,SE,138,6.0,7.0,96,0.00,,,-99.99,,2013-01-17 11:53:00,
2013-01-17 05:02:00,12.0,11.0,-100.00,SE,138,6.0,7.0,96,0.00,,,-99.99,,2013-01-17 12:02:00,
2013-01-17 05:12:00,11.0,11.0,-100.00,SE,133,6.0,7.0,96,0.00,,,-99.99,,2013-01-17 12:12:00,
2013-01-17 05:22:00,12.0,11.0,-100.00,SE,136,7.0,8.0,96,0.00,,,-99.99,,2013-01-17 12:22:00,
2013-01-17 05:32:00,12.0,11.0,-100.00,SE,136,7.0,8.0,96,0.00,,,-99.99,,2013-01-17 12:32:00,
2013-01-17 05:42:00,11.0,10.0,-100.00,SE,138,6.0,7.0,95,0.00,,,-99.99,,2013-01-17 12:42:00,
2013-01-17 05:53:00,10.0,9.0,-100.00,SE,136,6.0,7.0,95,0.00,,,-99.99,,2013-01-17 12:53:00,
2013-01-17 06:02:00,10.0,9.0,-100.00,SE,136,6.0,7.0,95,0.00,,,-99.99,,2013-01-17 13:02:00,
2013-01-17 06:12:00,10.0,9.0,-100.00,SE,136,6.0,8.0,95,0.00,,,-99.99,,2013-01-17 13:12:00,
2013-01-17 06:22:00,10.0,9.0,-100.00,SE,136,6.0,8.0,95,0.00,,,-99.99,,2013-01-17 13:22:00,
2013-01-17 06:33:00,10.0,9.0,-100.00,SE,136,6.0,8.0,95,0.00,,,-99.99,,2013-01-17 13:33:00,
2013-01-17 06:42:00,9.0,8.0,-100.00,SE,134,6.0,7.0,95,0.00,,,-99.99,,2013-01-17 13:42:00,
2013-01-17 06:53:00,9.0,8.0,-100.00,SE,134,6.0,7.0,95,0.00,,,-99.99,,2013-01-17 13:53:00,
2013-01-17 07:03:00,9.0,8.0,-100.00,SE,138,6.0,7.0,95,0.00,,,-99.99,,2013-01-17 14:03:00,
2013-01-17 07:12:00,9.0,8.0,-100.00,SE,136,6.0,8.0,95,0.00,,,-99.99,,2013-01-17 14:12:00,
2013-01-17 07:23:00,9.0,8.0,-100.00,SE,136,6.0,8.0,95,0.00,,,-99.99,,2013-01-17 14:23:00,
2013-01-17 07:42:00,10.0,9.0,-100.00,SE,141,6.0,8.0,95,0.00,,,-99.99,,2013-01-17 14:42:00,
2013-01-17 07:53:00,10.0,9.0,-100.00,SE,141,6.0,8.0,95,0.00,,,-99.99,,2013-01-17 14:53:00,
2013-01-17 08:03:00,10.0,9.0,-100.00,SE,141,6.0,8.0,95,0.00,,,-99.99,,2013-01-17 15:03:00,
2013-01-17 08:12:00,10.0,9.0,-100.00,SE,134,6.0,8.0,95,0.00,,,-99.99,,2013-01-17 15:12:00,
2013-01-17 08:22:00,9.0,8.0,-100.00,SE,136,6.0,7.0,94,0.00,,,-99.99,,2013-01-17 15:22:00,
2013-01-17 08:33:00,9.0,8.0,-100.00,SE,136,6.0,7.0,94,0.00,,,-99.99,,2013-01-17 15:33:00,
2013-01-17 08:43:00,9.0,8.0,-100.00,SE,131,7.0,8.0,95,0.00,,,-99.99,,2013-01-17 15:43:00,
2013-01-17 08:53:00,8.0,7.0,-100.00,SE,133,6.0,7.0,95,0.00,,,-99.99,,2013-01-17 15:53:00,
2013-01-17 09:02:00,8.0,7.0,-100.00,SE,133,6.0,7.0,95,0.00,,,-99.99,,2013-01-17 16:02:00,
2013-01-17 09:12:00,9.0,7.0,-100.00,SE,134,6.0,6.0,94,0.00,,,-99.99,,2013-01-17 16:12:00,
2013-01-17 09:22:00,9.0,8.0,-100.00,SE,136,6.0,7.0,95,0.00,,,-99.99,,2013-01-17 16:22:00,
2013-01-17 09:33:00,9.0,8.0,-100.00,SE,136,6.0,7.0,95,0.00,,,-99.99,,2013-01-17 16:33:00,
2013-01-17 09:43:00,11.0,10.0,-100.00,SE,133,7.0,8.0,97,0.00,,,-99.99,,2013-01-17 16:43:00,
2013-01-17 09:53:00,14.0,13.0,-100.00,SE,131,6.0,8.0,98,0.00,,,-99.99,,2013-01-17 16:53:00,
2013-01-17 10:02:00,14.0,13.0,-100.00,SE,131,6.0,8.0,98,0.00,,,-99.99,,2013-01-17 17:02:00,
2013-01-17 10:12:00,14.0,13.0,-100.00,SE,131,6.0,8.0,98,0.00,,,-99.99,,2013-01-17 17:12:00,
2013-01-17 10:22:00,14.0,13.0,-100.00,SE,131,6.0,8.0,98,0.00,,,-99.99,,2013-01-17 17:22:00,
2013-01-17 10:32:00,15.0,15.0,-100.00,SE,140,6.0,7.0,98,0.00,,,-99.99,,2013-01-17 17:32:00,
2013-01-17 10:43:00,16.0,15.0,-100.00,ESE,123,7.0,9.0,98,0.00,,,-99.99,,2013-01-17 17:43:00,
2013-01-17 10:53:00,16.0,15.0,-100.00,ESE,123,7.0,9.0,98,0.00,,,-99.99,,2013-01-17 17:53:00,
2013-01-17 11:03:00,17.0,16.0,-100.00,SE,126,7.0,9.0,98,0.00,,,-99.99,,2013-01-17 18:03:00,
2013-01-17 11:12:00,17.0,17.0,-100.00,SE,127,8.0,10.0,98,0.00,,,-99.99,,2013-01-17 18:12:00,
2013-01-17 11:22:00,17.0,17.0,-100.00,SE,137,9.0,13.0,98,0.00,,,-99.99,,2013-01-17 18:22:00,
2013-01-17 11:33:00,17.0,17.0,-100.00,SE,137,9.0,13.0,98,0.00,,,-99.99,,2013-01-17 18:33:00,
2013-01-17 11:43:00,17.0,17.0,-100.00,SE,134,11.0,15.0,98,0.00,,,-99.99,,2013-01-17 18:43:00,
2013-01-17 11:53:00,17.0,17.0,-100.00,SE,134,11.0,15.0,98,0.00,,,-99.99,,2013-01-17 18:53:00,
2013-01-17 12:02:00,18.0,17.0,-100.00,SE,137,10.0,13.0,98,0.00,,,-99.99,,2013-01-17 19:02:00,
2013-01-17 12:12:00,18.0,18.0,-100.00,SE,134,10.0,12.0,98,0.00,,,-99.99,,2013-01-17 19:12:00,
2013-01-17 12:22:00,18.0,18.0,-100.00,SE,134,10.0,12.0,98,0.00,,,-99.99,,2013-01-17 19:22:00,
2013-01-17 12:42:00,18.0,18.0,-100.00,SE,127,12.0,14.0,100,0.00,,,-99.99,,2013-01-17 19:42:00,
2013-01-17 12:53:00,18.0,18.0,-100.00,SE,127,12.0,14.0,100,0.00,,,-99.99,,2013-01-17 19:53:00,
2013-01-17 13:12:00,20.0,19.0,-100.00,SE,136,12.0,14.0,99,0.00,,,-99.99,,2013-01-17 20:12:00,
2013-01-17 13:22:00,20.0,19.0,-100.00,SE,136,12.0,14.0,99,0.00,,,-99.99,,2013-01-17 20:22:00,
2013-01-17 13:43:00,19.0,19.0,-100.00,SE,127,12.0,15.0,99,0.00,,,-99.99,,2013-01-17 20:43:00,
2013-01-17 13:53:00,19.0,19.0,-100.00,SE,127,12.0,15.0,99,0.00,,,-99.99,,2013-01-17 20:53:00,
2013-01-17 14:02:00,20.0,20.0,-100.00,SE,134,10.0,14.0,100,0.00,,,-99.99,,2013-01-17 21:02:00,
2013-01-17 14:22:00,19.0,19.0,-100.00,ESE,121,12.0,15.0,99,0.00,,,-99.99,,2013-01-17 21:22:00,
2013-01-17 14:33:00,19.0,19.0,-100.00,ESE,121,12.0,15.0,99,0.00,,,-99.99,,2013-01-17 21:33:00,
2013-01-17 14:42:00,20.0,20.0,-100.00,SE,127,13.0,16.0,100,0.00,,,-99.99,,2013-01-17 21:42:00,
2013-01-17 14:53:00,20.0,20.0,-100.00,SE,133,12.0,17.0,100,0.00,,,-99.99,,2013-01-17 21:53:00,
2013-01-17 15:03:00,20.0,20.0,-100.00,SE,133,12.0,17.0,100,0.00,,,-99.99,,2013-01-17 22:03:00,
2013-01-17 15:12:00,20.0,20.0,-100.00,SE,127,11.0,17.0,100,0.00,,,-99.99,,2013-01-17 22:12:00,
2013-01-17 15:22:00,21.0,21.0,-100.00,SE,127,9.0,10.0,100,0.00,,,-99.99,,2013-01-17 22:22:00,
2013-01-17 15:32:00,21.0,21.0,-100.00,SE,127,9.0,10.0,100,0.00,,,-99.99,,2013-01-17 22:32:00,
2013-01-17 15:42:00,20.0,20.0,-100.00,ESE,119,10.0,12.0,98,0.00,,,-99.99,,2013-01-17 22:42:00,
2013-01-17 15:52:00,20.0,20.0,-100.00,ESE,119,10.0,12.0,98,0.00,,,-99.99,,2013-01-17 22:52:00,
2013-01-17 16:02:00,20.0,20.0,-100.00,SE,128,9.0,12.0,98,0.00,,,-99.99,,2013-01-17 23:02:00,
2013-01-17 16:12:00,20.0,19.0,-100.00,ESE,123,10.0,12.0,97,0.00,,,-99.99,,2013-01-17 23:12:00,
2013-01-17 16:22:00,19.0,18.0,-100.00,SE,126,9.0,11.0,97,0.00,,,-99.99,,2013-01-17 23:22:00,
2013-01-17 16:32:00,19.0,18.0,-100.00,SE,126,9.0,11.0,97,0.00,,,-99.99,,2013-01-17 23:32:00,
2013-01-17 16:42:00,19.0,18.0,-100.00,SE,133,9.0,11.0,98,0.00,,,-99.99,,2013-01-17 23:42:00,
2013-01-17 16:53:00,19.0,18.0,-100.00,SE,133,9.0,11.0,98,0.00,,,-99.99,,2013-01-17 23:53:00,
2013-01-17 17:02:00,18.0,17.0,-100.00,SE,126,7.0,9.0,96,0.00,,,-99.99,,2013-01-18 00:02:00,
2013-01-17 17:12:00,17.0,16.0,-100.00,ESE,120,8.0,9.0,97,0.00,,,-99.99,,2013-01-18 00:12:00,
2013-01-17 17:23:00,17.0,16.0,-100.00,ESE,121,8.0,9.0,96,0.00,,,-99.99,,2013-01-18 00:23:00,
2013-01-17 17:32:00,17.0,16.0,-100.00,ESE,121,8.0,9.0,96,0.00,,,-99.99,,2013-01-18 00:32:00,
2013-01-17 17:42:00,16.0,15.0,-100.00,SE,124,7.0,9.0,96,0.00,,,-99.99,,2013-01-18 00:42:00,
2013-01-17 17:52:00,16.0,15.0,-100.00,SE,124,7.0,9.0,96,0.00,,,-99.99,,2013-01-18 00:52:00,
2013-01-17 18:02:00,15.0,15.0,-100.00,ESE,123,7.0,8.0,96,0.00,,,-99.99,,2013-01-18 01:02:00,
2013-01-17 18:12:00,15.0,14.0,-100.00,ESE,121,7.0,8.0,97,0.00,,,-99.99,,2013-01-18 01:12:00,
2013-01-17 18:22:00,15.0,14.0,-100.00,ESE,121,7.0,8.0,97,0.00,,,-99.99,,2013-01-18 01:22:00,
2013-01-17 18:32:00,15.0,14.0,-100.00,ESE,121,7.0,8.0,97,0.00,,,-99.99,,2013-01-18 01:32:00,
2013-01-17 18:52:00,14.0,13.0,-100.00,SE,126,7.0,8.0,97,0.00,,,-99.99,,2013-01-18 01:52:00,
2013-01-17 19:02:00,14.0,13.0,-100.00,SE,126,7.0,8.0,97,0.00,,,-99.99,,2013-01-18 02:02:00,
2013-01-17 19:12:00,14.0,13.0,-100.00,ESE,120,8.0,9.0,97,0.00,,,-99.99,,2013-01-18 02:12:00,
2013-01-17 19:22:00,14.0,13.0,-100.00,ESE,123,8.0,9.0,97,0.00,,,-99.99,,2013-01-18 02:22:00,
2013-01-17 19:32:00,14.0,13.0,-100.00,ESE,123,8.0,9.0,97,0.00,,,-99.99,,2013-01-18 02:32:00,
2013-01-17 19:42:00,14.0,13.0,-100.00,SE,126,8.0,9.0,98,0.00,,,-99.99,,2013-01-18 02:42:00,
2013-01-17 19:53:00,14.0,13.0,-100.00,SE,130,8.0,9.0,96,0.00,,,-99.99,,2013-01-18 02:53:00,
2013-01-17 20:02:00,14.0,13.0,-100.00,SE,130,8.0,9.0,96,0.00,,,-99.99,,2013-01-18 03:02:00,
2013-01-17 20:12:00,13.0,12.0,-100.00,SE,131,8.0,9.0,97,0.00,,,-99.99,,2013-01-18 03:12:00,
2013-01-17 20:22:00,13.0,12.0,-100.00,SE,133,7.0,8.0,97,0.00,,,-99.99,,2013-01-18 03:22:00,
2013-01-17 20:33:00,13.0,12.0,-100.00,SE,133,7.0,8.0,97,0.00,,,-99.99,,2013-01-18 03:33:00,
2013-01-17 20:42:00,13.0,12.0,-100.00,SE,131,8.0,9.0,97,0.00,,,-99.99,,2013-01-18 03:42:00,
2013-01-17 20:52:00,13.0,13.0,-100.00,SE,134,8.0,9.0,97,0.00,,,-99.99,,2013-01-18 03:52:00,
2013-01-17 21:02:00,13.0,13.0,-100.00,SE,134,8.0,9.0,97,0.00,,,-99.99,,2013-01-18 04:02:00,
2013-01-17 21:12:00,13.0,13.0,-100.00,SE,127,9.0,11.0,97,0.00,,,-99.99,,2013-01-18 04:12:00,
2013-01-17 21:22:00,13.0,13.0,-100.00,SE,137,8.0,9.0,97,0.00,,,-99.99,,2013-01-18 04:22:00,
2013-01-17 21:32:00,13.0,13.0,-100.00,SE,137,8.0,9.0,97,0.00,,,-99.99,,2013-01-18 04:32:00,
2013-01-17 21:42:00,12.0,11.0,-100.00,SE,136,8.0,9.0,96,0.00,,,-99.99,,2013-01-18 04:42:00,
2013-01-17 21:53:00,13.0,12.0,-100.00,SE,136,8.0,9.0,97,0.00,,,-99.99,,2013-01-18 04:53:00,
2013-01-17 22:03:00,13.0,12.0,-100.00,SE,136,8.0,9.0,97,0.00,,,-99.99,,2013-01-18 05:03:00,
2013-01-17 22:12:00,13.0,12.0,-100.00,SE,140,8.0,10.0,96,0.00,,,-99.99,,2013-01-18 05:12:00,
2013-01-17 22:42:00,12.0,11.0,-100.00,SE,137,9.0,10.0,96,0.00,,,-99.99,,2013-01-18 05:42:00,
2013-01-17 22:53:00,12.0,11.0,-100.00,SE,133,9.0,11.0,96,0.00,,,-99.99,,2013-01-18 05:53:00,
2013-01-17 23:02:00,12.0,11.0,-100.00,SE,133,9.0,11.0,96,0.00,,,-99.99,,2013-01-18 06:02:00,
2013-01-17 23:12:00,12.0,11.0,-100.00,SE,134,9.0,11.0,96,0.00,,,-99.99,,2013-01-18 06:12:00,
2013-01-17 23:22:00,13.0,12.0,-100.00,SE,140,8.0,9.0,96,0.00,,,-99.99,,2013-01-18 06:22:00,
2013-01-17 23:43:00,12.0,11.0,-100.00,SE,137,8.0,10.0,96,0.00,,,-99.99,,2013-01-18 06:43:00,
2013-01-17 23:52:00,13.0,12.0,-100.00,SE,136,6.0,7.0,96,0.00,,,-99.99,,2013-01-18 06:52:00,